Time;durP1;ratioP1;P1;durP2;ratioP2;P2;SDS_P1;SDS_P2;PMS_P1;PMS_P2;Temp;Humidity;BMP_temperature;BMP_pressure;BME280_temperature;BME280_humidity;BME280_pressure;Samples;Min_cycle;Max_cycle;Signal;HPM_P1;HPM_P2
2023/10/08 00:01:22;;;;;;;13.57;5.80;;;18.60;39.10;;;;;;5007757;28;20405;-75
2023/10/08 00:03:49;;;;;;;11.00;5.00;;;18.60;39.40;;;;;;5012217;28;20403;-76
2023/10/08 00:06:15;;;;;;;10.60;5.57;;;18.50;39.90;;;;;;5013219;28;20385;-76
2023/10/08 00:08:41;;;;;;;14.88;5.70;;;18.50;40.30;;;;;;5014686;28;20424;-76
2023/10/08 00:11:10;;;;;;;8.98;5.10;;;18.60;39.30;;;;;;5015972;28;20397;-76
2023/10/08 00:13:39;;;;;;;14.98;6.03;;;18.60;39.10;;;;;;5014827;28;20392;-76
2023/10/08 00:16:09;;;;;;;11.15;5.05;;;18.70;39.40;;;;;;5011109;28;20381;-75
2023/10/08 00:18:35;;;;;;;8.43;5.20;;;18.50;39.90;;;;;;5011109;28;20894;-76
2023/10/08 00:23:41;;;;;;;12.38;5.43;;;18.50;39.70;;;;;;5010691;28;20408;-74
2023/10/08 00:26:10;;;;;;;19.20;6.00;;;18.50;39.70;;;;;;5010990;28;20982;-75
2023/10/08 00:28:36;;;;;;;11.15;5.65;;;18.40;40.40;;;;;;5009429;28;20849;-77
2023/10/08 00:31:12;;;;;;;13.30;5.77;;;18.50;40.30;;;;;;5010764;28;20548;-75
2023/10/08 00:33:39;;;;;;;12.35;5.30;;;18.50;40.10;;;;;;5011553;28;20400;-75
2023/10/08 00:36:20;;;;;;;14.30;5.53;;;18.50;39.80;;;;;;5010670;28;20403;-74
2023/10/08 00:39:00;;;;;;;12.60;6.10;;;18.50;40.20;;;;;;5009602;28;20388;-75
2023/10/08 00:41:31;;;;;;;12.00;5.25;;;18.50;40.30;;;;;;5010473;28;20399;-76
2023/10/08 00:43:59;;;;;;;11.80;5.18;;;18.40;40.30;;;;;;5010779;28;20381;-75
2023/10/08 00:46:32;;;;;;;11.32;5.85;;;18.40;40.30;;;;;;5010756;28;20411;-74
2023/10/08 00:49:24;;;;;;;11.43;5.80;;;18.40;40.00;;;;;;5010672;28;20400;-76
2023/10/08 00:52:25;;;;;;;10.25;5.50;;;18.40;40.60;;;;;;5010692;28;20381;-76
2023/10/08 00:55:07;;;;;;;10.43;5.40;;;18.40;40.60;;;;;;5011595;28;20389;-75
2023/10/08 00:57:35;;;;;;;16.17;6.40;;;18.40;41.20;;;;;;5013042;28;20415;-76
2023/10/08 01:00:03;;;;;;;12.40;6.07;;;18.40;40.50;;;;;;5011426;28;20786;-76
2023/10/08 01:02:45;;;;;;;12.60;5.82;;;18.40;40.30;;;;;;5011821;28;20480;-75
2023/10/08 01:05:13;;;;;;;13.70;6.15;;;18.40;40.50;;;;;;5017103;28;20400;-76
2023/10/08 01:07:44;;;;;;;11.57;5.07;;;18.40;40.00;;;;;;5017864;28;20412;-76
2023/10/08 01:10:13;;;;;;;10.93;5.78;;;18.40;40.30;;;;;;5013095;28;20409;-76
2023/10/08 01:13:26;;;;;;;13.15;5.78;;;18.30;40.20;;;;;;5014169;28;20389;-75
2023/10/08 01:15:30;;;;;;;13.93;6.15;;;18.30;40.50;;;;;;5007324;28;20428;-76
2023/10/08 01:18:06;;;;;;;11.50;5.90;;;18.20;41.50;;;;;;5014365;28;20384;-76
2023/10/08 01:20:38;;;;;;;14.25;6.10;;;18.10;41.50;;;;;;5013539;28;20926;-76
2023/10/08 01:23:16;;;;;;;13.60;6.22;;;18.10;41.50;;;;;;5013455;28;20399;-75
2023/10/08 01:25:43;;;;;;;14.90;5.90;;;18.00;41.90;;;;;;5013647;28;20416;-76
2023/10/08 01:28:18;;;;;;;16.40;5.30;;;18.00;41.50;;;;;;5013554;28;20918;-75
2023/10/08 01:30:47;;;;;;;16.30;6.50;;;18.10;41.50;;;;;;5013478;28;20476;-75
2023/10/08 01:33:15;;;;;;;14.83;5.60;;;18.00;41.30;;;;;;5013248;28;20389;-76
2023/10/08 01:35:41;;;;;;;11.50;5.78;;;17.90;42.10;;;;;;5013635;28;20508;-76
2023/10/08 01:38:08;;;;;;;10.60;5.85;;;17.80;42.80;;;;;;5013727;28;20420;-76
2023/10/08 01:40:33;;;;;;;14.38;6.30;;;17.70;43.00;;;;;;5013235;28;20389;-74
2023/10/08 01:42:59;;;;;;;11.35;6.15;;;17.60;43.40;;;;;;5012097;28;20385;-76
2023/10/08 01:45:26;;;;;;;11.27;5.50;;;17.60;44.00;;;;;;5013360;28;20416;-77
2023/10/08 01:47:54;;;;;;;13.90;5.72;;;17.60;43.60;;;;;;5009576;28;20409;-76
2023/10/08 01:50:29;;;;;;;16.20;6.20;;;17.50;44.20;;;;;;4992871;28;20391;-75
2023/10/08 01:52:55;;;;;;;16.50;6.10;;;17.40;44.60;;;;;;4992690;28;20401;-73
2023/10/08 01:55:22;;;;;;;12.27;6.20;;;17.40;44.50;;;;;;4995025;28;20406;-76
2023/10/08 01:57:49;;;;;;;14.23;5.95;;;17.40;44.80;;;;;;4996291;28;20469;-75
2023/10/08 02:00:26;;;;;;;11.48;5.93;;;17.40;44.90;;;;;;4993278;28;20394;-75
2023/10/08 02:02:53;;;;;;;14.80;5.80;;;17.30;45.10;;;;;;5005107;28;21804;-76
2023/10/08 02:05:20;;;;;;;14.15;6.50;;;17.20;45.80;;;;;;4995223;28;20410;-75
2023/10/08 02:07:46;;;;;;;14.10;6.10;;;17.20;46.10;;;;;;4996331;28;20410;-75
2023/10/08 02:10:14;;;;;;;12.18;5.50;;;17.30;46.10;;;;;;4993826;28;20765;-77
2023/10/08 02:12:40;;;;;;;14.35;6.30;;;17.50;44.70;;;;;;4994127;28;20727;-77
2023/10/08 02:15:07;;;;;;;13.07;5.70;;;17.40;44.90;;;;;;4994207;28;20437;-76
2023/10/08 02:17:33;;;;;;;15.25;6.22;;;17.30;45.90;;;;;;4994561;28;20418;-76
2023/10/08 02:19:58;;;;;;;18.42;5.70;;;17.20;45.40;;;;;;4994885;28;20398;-75
2023/10/08 02:22:24;;;;;;;18.33;6.10;;;17.30;44.90;;;;;;4993190;28;20765;-76
2023/10/08 02:24:50;;;;;;;14.90;5.87;;;17.40;44.10;;;;;;4994884;28;20418;-76
2023/10/08 02:27:16;;;;;;;11.73;5.88;;;17.40;43.90;;;;;;4994325;28;20430;-76
2023/10/08 02:29:42;;;;;;;12.10;6.20;;;17.40;43.80;;;;;;4994491;28;20398;-76
2023/10/08 02:32:08;;;;;;;15.20;5.88;;;17.40;43.30;;;;;;4993949;28;20785;-76
2023/10/08 02:34:35;;;;;;;12.98;6.10;;;17.40;43.70;;;;;;4994028;28;20394;-75
2023/10/08 02:37:03;;;;;;;11.80;6.00;;;17.40;43.30;;;;;;4993453;28;20413;-75
2023/10/08 02:39:30;;;;;;;15.45;5.72;;;17.30;44.10;;;;;;4992210;28;20563;-76
2023/10/08 02:41:59;;;;;;;17.20;5.82;;;17.20;45.20;;;;;;4992235;28;20881;-76
2023/10/08 02:44:25;;;;;;;15.35;6.50;;;17.10;46.00;;;;;;4992412;28;20394;-76
2023/10/08 02:46:51;;;;;;;13.77;6.32;;;17.10;46.20;;;;;;4992354;28;20390;-76
2023/10/08 02:49:22;;;;;;;14.95;5.90;;;17.10;45.30;;;;;;4992354;28;20913;-76
2023/10/08 02:51:53;;;;;;;12.55;6.63;;;17.10;44.80;;;;;;4992242;28;20873;-76
2023/10/08 02:54:22;;;;;;;15.00;6.40;;;17.10;45.10;;;;;;4992055;28;20391;-75
2023/10/08 02:56:55;;;;;;;10.70;5.73;;;17.10;45.30;;;;;;4992174;28;20394;-76
2023/10/08 02:59:24;;;;;;;11.30;6.13;;;17.20;44.40;;;;;;4991999;28;20391;-75
2023/10/08 03:01:52;;;;;;;20.05;6.22;;;17.10;44.90;;;;;;4991673;28;20390;-75
2023/10/08 03:04:18;;;;;;;14.48;6.07;;;17.10;44.40;;;;;;4991860;28;20830;-75
2023/10/08 03:06:51;;;;;;;13.93;6.50;;;17.30;44.40;;;;;;4991928;28;20904;-76
2023/10/08 03:09:23;;;;;;;13.38;6.57;;;17.20;44.30;;;;;;4991788;28;20414;-75
2023/10/08 03:11:50;;;;;;;13.25;5.90;;;17.10;44.50;;;;;;5022160;23;20476;-74
2023/10/08 03:14:23;;;;;;;10.45;5.93;;;17.00;44.70;;;;;;5011915;28;20381;-74
2023/10/08 03:16:52;;;;;;;16.00;6.10;;;17.10;44.90;;;;;;5011988;28;20471;-72
2023/10/08 03:19:19;;;;;;;12.05;6.20;;;16.90;45.50;;;;;;5011517;28;20935;-74
2023/10/08 03:21:55;;;;;;;11.13;5.97;;;16.90;46.00;;;;;;5011773;28;20755;-74
2023/10/08 03:24:37;;;;;;;13.07;5.67;;;16.90;46.30;;;;;;5012061;28;20395;-74
2023/10/08 03:27:07;;;;;;;13.45;6.63;;;16.90;46.50;;;;;;5011562;28;20381;-74
2023/10/08 03:29:40;;;;;;;13.03;5.80;;;16.90;46.40;;;;;;5011593;28;20782;-74
2023/10/08 03:32:06;;;;;;;14.15;6.30;;;16.90;45.90;;;;;;5013040;28;20482;-73
2023/10/08 03:34:34;;;;;;;13.18;5.95;;;16.90;45.70;;;;;;5017412;28;20421;-75
2023/10/08 03:37:05;;;;;;;17.77;6.22;;;17.00;45.90;;;;;;5017416;28;20385;-74
2023/10/08 03:39:50;;;;;;;14.13;6.07;;;17.10;44.90;;;;;;5018065;28;20419;-75
2023/10/08 03:42:20;;;;;;;11.30;5.90;;;17.10;44.80;;;;;;5014889;28;20390;-73
2023/10/08 03:44:50;;;;;;;13.00;6.15;;;17.10;44.70;;;;;;5014812;28;20392;-74
2023/10/08 03:47:18;;;;;;;15.80;6.45;;;17.00;45.10;;;;;;5011250;28;20721;-74
2023/10/08 03:49:50;;;;;;;16.80;6.25;;;16.90;44.80;;;;;;5011232;28;20450;-74
2023/10/08 03:52:16;;;;;;;14.30;6.15;;;16.90;45.00;;;;;;5010910;28;20578;-74
2023/10/08 03:57:40;;;;;;;13.30;5.72;;;16.80;45.20;;;;;;5010979;28;20449;-74
2023/10/08 04:00:11;;;;;;;14.10;6.65;;;16.70;46.50;;;;;;5010974;28;20392;-73
2023/10/08 04:02:40;;;;;;;11.30;5.60;;;16.80;45.40;;;;;;5010618;28;20392;-74
2023/10/08 04:05:19;;;;;;;14.60;5.85;;;16.70;45.90;;;;;;5011270;28;20385;-73
2023/10/08 04:08:16;;;;;;;14.88;6.30;;;16.70;46.00;;;;;;5014510;28;20541;-73
2023/10/08 04:10:49;;;;;;;17.98;7.00;;;16.70;45.80;;;;;;5013713;28;20463;-74
2023/10/08 04:13:16;;;;;;;13.60;6.13;;;16.70;45.10;;;;;;5011320;28;20381;-72
2023/10/08 04:15:42;;;;;;;13.27;6.45;;;16.70;44.90;;;;;;5012973;28;20444;-74
2023/10/08 04:18:08;;;;;;;19.27;5.82;;;16.70;44.70;;;;;;5021842;28;20393;-74
2023/10/08 04:20:38;;;;;;;18.23;5.93;;;16.80;43.90;;;;;;5033149;28;20455;-74
2023/10/08 04:23:13;;;;;;;13.80;6.03;;;16.70;44.50;;;;;;5029977;28;20421;-73
2023/10/08 04:25:41;;;;;;;15.05;6.20;;;16.60;44.80;;;;;;5013889;28;20462;-74
2023/10/08 04:28:13;;;;;;;14.88;5.70;;;16.60;44.60;;;;;;5010929;28;20792;-72
2023/10/08 04:30:41;;;;;;;15.30;5.65;;;16.90;43.20;;;;;;5010584;28;20475;-73
2023/10/08 04:33:14;;;;;;;18.60;5.97;;;16.90;43.00;;;;;;5010431;28;20389;-71
2023/10/08 04:35:48;;;;;;;15.02;6.50;;;16.70;44.00;;;;;;5010925;28;20817;-74
2023/10/08 04:38:23;;;;;;;13.40;6.03;;;16.60;44.30;;;;;;5010801;28;20866;-73
2023/10/08 04:40:51;;;;;;;14.27;5.43;;;16.70;44.10;;;;;;5010667;28;20547;-72
2023/10/08 04:43:24;;;;;;;12.90;5.90;;;16.80;43.10;;;;;;5013751;28;20822;-74
2023/10/08 04:45:51;;;;;;;15.00;6.20;;;16.70;43.80;;;;;;5014670;28;20384;-73
2023/10/08 04:48:20;;;;;;;12.60;5.70;;;16.50;44.20;;;;;;5022661;28;20432;-74
2023/10/08 04:50:58;;;;;;;12.80;5.50;;;16.50;45.00;;;;;;5026481;28;20876;-73
2023/10/08 04:53:36;;;;;;;15.98;6.70;;;16.60;45.10;;;;;;5026030;28;20879;-73
2023/10/08 04:56:13;;;;;;;14.98;6.20;;;16.50;44.70;;;;;;5027704;28;20385;-72
2023/10/08 04:58:46;;;;;;;14.40;5.80;;;16.50;44.20;;;;;;5026771;28;20389;-73
2023/10/08 05:11:56;;;;;;;16.25;6.40;;;16.50;44.20;;;;;;5028458;28;20403;-74
2023/10/08 05:17:45;;;;;;;13.45;5.90;;;16.60;43.00;;;;;;5019429;28;20420;-73
2023/10/08 05:20:17;;;;;;;13.20;5.70;;;16.60;43.40;;;;;;5010056;28;20389;-74
2023/10/08 05:22:44;;;;;;;15.32;5.57;;;16.60;44.30;;;;;;5021686;28;20878;-73
2023/10/08 05:30:25;;;;;;;17.30;6.95;;;16.80;42.70;;;;;;5014578;28;20415;-74
2023/10/08 05:38:16;;;;;;;17.58;6.25;;;16.80;42.10;;;;;;5013633;28;20978;-73
2023/10/08 05:41:04;;;;;;;16.30;6.15;;;16.80;42.50;;;;;;4995477;28;20392;-73
2023/10/08 05:49:25;;;;;;;12.90;6.43;;;16.70;43.30;;;;;;5013491;28;20925;-74
2023/10/08 06:08:21;;;;;;;16.60;6.10;;;16.20;46.10;;;;;;5012618;28;20399;-74
2023/10/08 06:13:45;;;;;;;17.37;6.20;;;16.30;45.30;;;;;;5012543;28;20502;-72
2023/10/08 06:16:30;;;;;;;17.35;6.68;;;16.40;44.60;;;;;;5001493;28;20439;-73
2023/10/08 06:18:56;;;;;;;17.35;6.20;;;16.40;44.20;;;;;;5012900;28;20389;-76
2023/10/08 06:21:21;;;;;;;17.33;6.40;;;16.50;44.40;;;;;;5012107;28;20732;-74
2023/10/08 06:23:47;;;;;;;19.00;6.27;;;16.50;44.40;;;;;;5012482;28;20393;-73
2023/10/08 06:28:39;;;;;;;15.77;6.50;;;16.60;44.00;;;;;;5012393;28;20478;-73
2023/10/08 06:31:11;;;;;;;14.30;6.50;;;16.50;44.60;;;;;;5012259;28;20854;-72
2023/10/08 06:33:38;;;;;;;17.20;6.13;;;16.50;45.10;;;;;;5012228;28;20876;-72
2023/10/08 06:36:13;;;;;;;19.30;6.32;;;16.90;42.20;;;;;;5012222;28;20385;-73
2023/10/08 06:38:40;;;;;;;13.60;6.10;;;16.90;42.20;;;;;;5012442;28;20396;-74
2023/10/08 06:43:43;;;;;;;14.05;6.07;;;16.80;43.20;;;;;;5011987;28;20803;-72
2023/10/08 06:46:12;;;;;;;16.13;6.40;;;17.00;42.40;;;;;;5012155;28;20381;-73
2023/10/08 06:48:41;;;;;;;16.08;6.35;;;17.00;42.10;;;;;;5012199;28;20423;-73
2023/10/08 06:51:12;;;;;;;16.52;6.70;;;17.00;42.00;;;;;;5012392;28;20450;-72
2023/10/08 06:53:42;;;;;;;21.23;6.50;;;17.00;41.30;;;;;;5012305;28;20381;-73
2023/10/08 06:56:12;;;;;;;18.25;6.90;;;17.00;42.40;;;;;;5012609;28;20388;-73
2023/10/08 06:58:38;;;;;;;15.93;6.53;;;16.80;42.60;;;;;;5012465;28;20427;-74
2023/10/08 07:01:08;;;;;;;22.80;7.25;;;16.70;43.70;;;;;;5012100;28;20446;-72
2023/10/08 07:03:35;;;;;;;28.80;7.47;;;16.80;43.80;;;;;;5012311;28;20389;-73
2023/10/08 07:06:02;;;;;;;13.50;6.30;;;16.80;43.80;;;;;;5016051;28;20417;-73
2023/10/08 07:08:31;;;;;;;15.77;7.05;;;17.00;43.00;;;;;;5014090;28;20760;-74
2023/10/08 07:10:59;;;;;;;15.07;6.33;;;17.00;42.40;;;;;;5014640;28;20431;-75
2023/10/08 07:13:29;;;;;;;15.60;6.90;;;17.10;41.60;;;;;;5011511;28;20760;-74
2023/10/08 07:15:55;;;;;;;14.13;6.80;;;17.50;40.10;;;;;;5007875;28;20409;-73
2023/10/08 07:18:27;;;;;;;15.40;6.45;;;17.60;39.50;;;;;;5010162;28;20419;-73
2023/10/08 07:20:55;;;;;;;13.75;6.60;;;17.50;39.60;;;;;;4995394;28;20402;-73
2023/10/08 07:23:25;;;;;;;14.43;6.80;;;17.50;39.40;;;;;;4993041;28;20387;-72
2023/10/08 07:25:58;;;;;;;12.90;6.45;;;17.40;39.80;;;;;;4992839;28;20769;-73
2023/10/08 07:28:25;;;;;;;15.85;6.50;;;17.40;39.90;;;;;;4976366;28;20429;-73
2023/10/08 07:30:52;;;;;;;22.45;6.57;;;17.50;40.00;;;;;;4993526;28;20409;-73
2023/10/08 07:33:18;;;;;;;16.33;7.20;;;17.50;39.80;;;;;;4992131;28;20390;-72
2023/10/08 07:35:57;;;;;;;12.93;6.10;;;17.40;40.10;;;;;;4975292;28;20395;-74
2023/10/08 07:38:27;;;;;;;17.90;6.95;;;17.40;40.80;;;;;;4992880;28;20387;-73
2023/10/08 07:40:55;;;;;;;19.38;6.72;;;17.40;40.40;;;;;;4992098;28;20457;-73
2023/10/08 07:43:20;;;;;;;17.42;7.30;;;17.40;39.80;;;;;;4992124;28;20908;-72
2023/10/08 07:45:46;;;;;;;21.70;7.50;;;17.50;40.10;;;;;;5007306;28;20406;-74
2023/10/08 07:48:14;;;;;;;15.48;7.70;;;17.50;39.70;;;;;;4978531;28;20406;-72
2023/10/08 07:50:45;;;;;;;18.95;7.78;;;17.50;40.30;;;;;;5009841;28;20457;-73
2023/10/08 07:53:17;;;;;;;19.75;7.93;;;17.50;40.10;;;;;;5003362;28;20490;-73
2023/10/08 07:55:45;;;;;;;22.90;9.27;;;17.60;40.10;;;;;;4993953;28;20873;-73
2023/10/08 07:58:11;;;;;;;16.15;7.70;;;17.60;39.80;;;;;;4993384;28;20477;-73
2023/10/08 08:00:38;;;;;;;15.80;7.00;;;17.70;39.30;;;;;;4991371;28;20484;-72
2023/10/08 08:03:04;;;;;;;22.75;9.55;;;17.60;40.10;;;;;;4991612;28;20409;-73
2023/10/08 08:05:31;;;;;;;15.70;7.20;;;17.60;39.70;;;;;;4991356;28;20415;-72
2023/10/08 08:07:59;;;;;;;21.75;9.32;;;17.70;39.70;;;;;;4996922;28;20405;-73
2023/10/08 08:10:25;;;;;;;20.48;10.60;;;17.80;39.60;;;;;;5000361;28;20393;-73
2023/10/08 08:12:56;;;;;;;18.77;8.77;;;17.90;38.90;;;;;;5010493;28;20886;-72
2023/10/08 08:15:22;;;;;;;24.88;8.98;;;18.10;38.50;;;;;;4994139;28;20378;-73
2023/10/08 08:17:48;;;;;;;16.55;8.13;;;18.30;37.90;;;;;;4993882;28;20873;-74
2023/10/08 08:20:34;;;;;;;17.43;8.37;;;18.40;37.20;;;;;;5000054;28;20415;-74
2023/10/08 08:23:06;;;;;;;21.30;8.50;;;18.60;36.20;;;;;;5014430;28;20385;-71
2023/10/08 08:26:12;;;;;;;21.80;8.70;;;18.70;35.80;;;;;;5014300;28;20381;-72
2023/10/08 08:28:30;;;;;;;20.90;8.57;;;18.80;36.30;;;;;;4991721;28;20480;-72
2023/10/08 08:31:04;;;;;;;21.60;8.17;;;18.60;36.20;;;;;;5011838;28;20885;-72
2023/10/08 08:33:52;;;;;;;22.92;9.02;;;18.60;36.60;;;;;;5012114;28;20404;-71
2023/10/08 08:36:16;;;;;;;25.90;9.13;;;18.40;36.90;;;;;;5012236;28;20415;-73
2023/10/08 08:38:43;;;;;;;21.13;8.97;;;18.60;37.70;;;;;;5012397;28;20392;-73
2023/10/08 08:41:12;;;;;;;24.52;9.02;;;18.90;36.60;;;;;;5012642;28;20401;-72
2023/10/08 08:43:43;;;;;;;26.05;10.50;;;18.90;36.00;;;;;;5012035;28;20411;-73
2023/10/08 08:46:12;;;;;;;33.42;10.73;;;18.80;36.20;;;;;;5013496;28;20391;-72
2023/10/08 08:48:44;;;;;;;20.40;10.13;;;18.70;37.20;;;;;;5010603;28;20830;-72
2023/10/08 08:51:10;;;;;;;31.83;11.80;;;18.70;37.00;;;;;;5012405;28;20408;-71
2023/10/08 08:53:36;;;;;;;29.20;12.07;;;18.70;37.60;;;;;;5010277;28;20398;-71
2023/10/08 08:56:05;;;;;;;31.63;11.45;;;18.80;36.90;;;;;;4994958;28;20437;-72
2023/10/08 08:58:34;;;;;;;34.90;12.20;;;18.80;37.10;;;;;;4989782;28;20545;-73
2023/10/08 09:01:01;;;;;;;32.63;11.43;;;18.90;37.30;;;;;;4976511;28;20402;-72
2023/10/08 09:03:30;;;;;;;35.07;11.27;;;19.10;36.10;;;;;;4994181;28;20824;-73
2023/10/08 09:05:57;;;;;;;31.83;11.85;;;18.90;37.20;;;;;;4993734;28;20401;-73
2023/10/08 09:08:27;;;;;;;32.22;11.82;;;19.00;37.10;;;;;;4996408;28;20772;-73
2023/10/08 09:11:00;;;;;;;39.13;11.52;;;19.20;36.20;;;;;;5019681;23;20824;-72
2023/10/08 09:13:27;;;;;;;30.20;10.13;;;19.30;36.50;;;;;;4991530;28;20387;-71
2023/10/08 09:16:11;;;;;;;30.25;10.73;;;19.40;35.70;;;;;;4991573;28;20445;-71
2023/10/08 09:18:37;;;;;;;38.20;11.85;;;19.50;35.70;;;;;;4991866;28;20418;-71
2023/10/08 09:21:22;;;;;;;31.13;11.30;;;19.60;34.90;;;;;;4974867;28;20445;-72
2023/10/08 09:23:54;;;;;;;30.00;11.07;;;19.70;35.00;;;;;;4973951;28;20406;-72
2023/10/08 09:26:29;;;;;;;34.10;11.75;;;19.90;34.60;;;;;;4990624;28;20465;-71
2023/10/08 09:28:54;;;;;;;31.63;11.98;;;19.80;35.00;;;;;;4990798;28;20418;-72
2023/10/08 09:31:23;;;;;;;30.00;11.45;;;19.80;35.00;;;;;;4990962;28;20907;-72
2023/10/08 09:33:56;;;;;;;30.75;12.18;;;19.90;34.90;;;;;;4974301;28;20390;-72
2023/10/08 09:36:31;;;;;;;38.33;14.48;;;19.90;35.00;;;;;;4991288;28;20394;-70
2023/10/08 09:39:04;;;;;;;44.95;15.57;;;19.70;35.90;;;;;;4990942;28;20394;-70
2023/10/08 09:41:31;;;;;;;34.33;14.23;;;19.50;36.90;;;;;;4990872;28;20394;-71
2023/10/08 09:43:58;;;;;;;41.93;14.60;;;19.60;36.50;;;;;;4990741;28;20428;-70
2023/10/08 09:46:36;;;;;;;39.10;14.85;;;19.70;36.70;;;;;;4990450;28;20410;-71
2023/10/08 09:49:06;;;;;;;43.85;15.38;;;19.60;36.30;;;;;;4990546;28;20959;-71
2023/10/08 09:51:35;;;;;;;45.20;14.50;;;19.60;36.70;;;;;;4990737;28;20398;-70
2023/10/08 09:54:04;;;;;;;37.70;14.52;;;19.60;36.10;;;;;;4990547;28;20406;-71
2023/10/08 09:56:31;;;;;;;43.08;16.13;;;19.40;37.30;;;;;;4990412;28;20406;-72
2023/10/08 09:58:59;;;;;;;45.43;15.80;;;19.20;38.10;;;;;;4973483;28;20465;-72
2023/10/08 10:01:26;;;;;;;49.60;16.90;;;19.20;39.00;;;;;;4990990;28;20449;-72
2023/10/08 10:03:52;;;;;;;45.08;15.50;;;19.30;39.70;;;;;;4991257;28;20399;-71
2023/10/08 10:06:18;;;;;;;43.20;14.20;;;19.50;38.70;;;;;;4991014;28;20722;-72
2023/10/08 10:08:45;;;;;;;53.75;16.73;;;19.90;38.70;;;;;;4991150;28;20881;-73
2023/10/08 10:11:11;;;;;;;47.95;17.65;;;20.30;35.20;;;;;;4990414;28;20415;-72
2023/10/08 10:13:47;;;;;;;54.60;18.73;;;20.50;34.40;;;;;;4973927;28;20476;-72
2023/10/08 10:16:16;;;;;;;54.15;18.92;;;20.40;34.80;;;;;;4992062;28;20403;-72
2023/10/08 10:18:46;;;;;;;55.15;18.63;;;20.40;34.60;;;;;;4992817;28;20387;-72
2023/10/08 10:21:12;;;;;;;50.40;18.67;;;20.30;35.60;;;;;;4991051;28;20438;-72
2023/10/08 10:23:46;;;;;;;55.50;17.97;;;20.50;35.20;;;;;;4990736;28;20433;-73
2023/10/08 10:26:25;;;;;;;51.47;18.40;;;20.80;34.70;;;;;;4991153;28;20473;-72
2023/10/08 10:29:15;;;;;;;50.70;18.00;;;20.90;34.20;;;;;;4990287;28;20433;-71
2023/10/08 10:31:49;;;;;;;50.65;19.50;;;21.10;33.60;;;;;;4989963;28;20394;-72
2023/10/08 10:34:37;;;;;;;54.55;19.67;;;21.20;32.60;;;;;;4990643;28;20398;-72
2023/10/08 10:37:08;;;;;;;51.10;18.50;;;21.30;32.40;;;;;;4991932;28;20386;-71
2023/10/08 10:39:39;;;;;;;50.28;17.67;;;21.30;32.40;;;;;;4973230;28;20438;-72
2023/10/08 10:42:18;;;;;;;44.88;17.63;;;21.10;32.80;;;;;;4990879;28;20436;-74
2023/10/08 10:44:44;;;;;;;49.90;18.27;;;21.20;32.60;;;;;;4990287;28;20437;-73
2023/10/08 10:57:56;;;;;;;54.08;18.17;;;21.90;30.60;;;;;;4990962;28;20916;-72
2023/10/08 11:03:15;;;;;;;49.72;20.02;;;21.40;32.00;;;;;;4990735;28;20390;-71
2023/10/08 11:05:47;;;;;;;48.03;19.17;;;21.10;33.20;;;;;;4990735;28;20765;-71
2023/10/08 11:08:14;;;;;;;57.78;19.73;;;21.00;33.60;;;;;;4990560;28;20497;-73
2023/10/08 11:10:50;;;;;;;58.92;19.40;;;20.90;34.40;;;;;;4990655;28;20773;-73
2023/10/08 11:13:17;;;;;;;56.90;21.20;;;20.70;34.50;;;;;;4990167;28;20409;-74
2023/10/08 11:15:49;;;;;;;50.47;20.80;;;20.50;35.60;;;;;;4990520;28;20394;-72
2023/10/08 11:18:18;;;;;;;46.03;18.70;;;20.80;35.00;;;;;;4980556;28;20477;-71
2023/10/08 11:20:45;;;;;;;53.58;21.00;;;21.00;34.50;;;;;;4990546;28;20838;-72
2023/10/08 11:23:17;;;;;;;57.38;21.50;;;21.10;33.70;;;;;;4989474;28;21012;-72
2023/10/08 11:26:02;;;;;;;45.15;19.98;;;21.00;34.00;;;;;;4989687;28;20386;-72
2023/10/08 11:28:28;;;;;;;60.30;22.35;;;20.70;35.30;;;;;;4990290;28;20418;-72
2023/10/08 11:30:57;;;;;;;55.43;23.57;;;21.00;34.60;;;;;;4989439;28;20414;-72
2023/10/08 11:33:22;;;;;;;54.17;23.15;;;21.30;33.50;;;;;;4988801;28;20394;-72
2023/10/08 11:36:01;;;;;;;58.30;24.60;;;21.60;33.50;;;;;;4990090;28;20393;-71
2023/10/08 11:38:27;;;;;;;65.35;25.15;;;21.60;32.70;;;;;;4990392;28;20891;-73
2023/10/08 11:40:58;;;;;;;56.92;23.98;;;21.60;33.10;;;;;;4989667;28;20493;-73
2023/10/08 11:43:24;;;;;;;64.60;24.27;;;22.20;31.30;;;;;;4972816;28;20394;-74
2023/10/08 11:45:51;;;;;;;60.60;23.15;;;22.30;31.50;;;;;;4969923;28;20538;-72
2023/10/08 11:48:25;;;;;;;52.42;22.73;;;22.60;30.40;;;;;;4972364;28;20552;-73
2023/10/08 11:50:51;;;;;;;47.20;19.55;;;22.50;31.10;;;;;;4990056;28;20390;-72
2023/10/08 11:53:19;;;;;;;45.33;20.75;;;22.40;30.90;;;;;;4993503;28;20379;-73
2023/10/08 11:55:47;;;;;;;41.47;20.52;;;22.30;31.80;;;;;;4996687;28;20797;-73
2023/10/08 11:58:17;;;;;;;43.15;19.98;;;22.40;32.00;;;;;;4993040;28;20397;-73
2023/10/08 12:00:44;;;;;;;49.57;23.90;;;22.60;31.20;;;;;;4974762;28;20417;-74
2023/10/08 12:03:17;;;;;;;38.15;19.60;;;22.60;30.50;;;;;;4992342;28;20391;-73
2023/10/08 12:05:47;;;;;;;39.85;18.00;;;22.80;30.30;;;;;;4992390;28;20734;-72
2023/10/08 12:08:16;;;;;;;39.97;19.50;;;22.60;30.30;;;;;;4991948;28;20418;-72
2023/10/08 12:10:43;;;;;;;43.28;20.08;;;22.60;31.10;;;;;;4974836;28;20448;-73
2023/10/08 12:13:10;;;;;;;43.17;21.20;;;22.70;30.70;;;;;;4992110;28;20394;-73
2023/10/08 12:15:39;;;;;;;43.55;19.48;;;22.80;30.40;;;;;;4993034;28;20901;-74
2023/10/08 12:18:08;;;;;;;50.15;20.98;;;22.70;30.50;;;;;;4993287;28;20386;-73
2023/10/08 12:20:38;;;;;;;42.38;21.00;;;22.70;30.60;;;;;;4993607;28;20840;-73
2023/10/08 12:23:10;;;;;;;45.72;22.20;;;22.60;30.70;;;;;;4993453;28;20386;-74
2023/10/08 12:25:37;;;;;;;46.33;21.33;;;22.60;30.80;;;;;;4993318;28;20481;-73
2023/10/08 12:28:06;;;;;;;37.40;18.63;;;22.80;31.10;;;;;;4991210;28;20406;-74
2023/10/08 12:30:34;;;;;;;43.22;18.80;;;22.60;30.40;;;;;;4993260;28;20385;-73
2023/10/08 12:33:00;;;;;;;44.28;18.98;;;22.30;31.70;;;;;;4992017;28;20809;-73
2023/10/08 12:35:29;;;;;;;43.88;18.45;;;22.00;33.10;;;;;;4991259;28;20386;-74
2023/10/08 12:37:54;;;;;;;38.28;18.77;;;22.10;32.70;;;;;;4991746;28;20813;-73
2023/10/08 12:40:23;;;;;;;57.22;21.02;;;21.80;33.10;;;;;;4990577;28;20398;-73
2023/10/08 12:42:52;;;;;;;52.70;20.17;;;21.80;32.80;;;;;;4990658;28;20394;-72
2023/10/08 12:45:21;;;;;;;56.38;23.00;;;21.90;33.50;;;;;;4991107;28;20394;-73
2023/10/08 12:47:49;;;;;;;57.45;24.15;;;21.80;33.40;;;;;;4990418;28;20391;-73
2023/10/08 12:50:15;;;;;;;51.97;23.00;;;21.50;34.10;;;;;;4990182;28;20390;-72
2023/10/08 12:52:47;;;;;;;58.58;22.85;;;21.30;34.90;;;;;;4990248;28;20388;-73
2023/10/08 12:55:12;;;;;;;54.03;23.88;;;21.20;35.70;;;;;;4990849;28;20387;-72
2023/10/08 12:57:40;;;;;;;57.13;23.55;;;21.40;35.30;;;;;;4990808;28;20378;-71
2023/10/08 13:00:08;;;;;;;55.30;23.60;;;21.50;35.50;;;;;;4991199;28;20520;-73
2023/10/08 13:02:38;;;;;;;44.13;20.38;;;21.70;34.60;;;;;;4990973;28;20386;-73
2023/10/08 13:05:15;;;;;;;41.13;19.75;;;21.60;34.70;;;;;;4994628;28;20744;-73
2023/10/08 13:07:42;;;;;;;53.28;18.52;;;21.40;35.80;;;;;;4994209;28;20477;-73
2023/10/08 13:10:11;;;;;;;53.80;23.10;;;21.60;35.10;;;;;;4994636;28;20387;-73
2023/10/08 13:12:37;;;;;;;57.08;23.40;;;21.70;35.70;;;;;;4994492;28;20797;-74
2023/10/08 13:15:06;;;;;;;42.05;19.55;;;21.70;35.70;;;;;;4994685;28;20393;-73
2023/10/08 13:17:32;;;;;;;52.20;20.60;;;22.00;34.30;;;;;;4994865;28;20435;-73
2023/10/08 13:19:57;;;;;;;47.17;22.02;;;22.10;33.30;;;;;;4993956;28;20818;-74
2023/10/08 13:22:24;;;;;;;42.90;18.40;;;21.90;34.80;;;;;;4993774;28;20398;-73
2023/10/08 13:24:49;;;;;;;42.28;17.25;;;21.90;34.50;;;;;;4993733;28;20444;-73
2023/10/08 13:27:16;;;;;;;34.05;16.75;;;21.90;33.90;;;;;;4993634;28;20395;-73
2023/10/08 13:29:43;;;;;;;37.00;17.05;;;21.80;34.80;;;;;;4993887;28;20406;-72
2023/10/08 13:32:17;;;;;;;36.00;17.30;;;21.70;34.80;;;;;;4993097;28;20421;-73
2023/10/08 13:34:43;;;;;;;39.88;17.67;;;21.80;34.40;;;;;;4993340;28;20492;-74
2023/10/08 13:37:09;;;;;;;33.10;17.83;;;21.90;34.80;;;;;;4993499;28;20386;-73
2023/10/08 13:39:35;;;;;;;34.38;16.98;;;21.90;34.60;;;;;;4976887;28;20959;-73
2023/10/08 13:42:01;;;;;;;33.20;16.52;;;21.90;34.60;;;;;;4993132;28;20461;-73
2023/10/08 13:44:29;;;;;;;37.22;16.50;;;22.00;34.40;;;;;;4993139;28;20397;-73
2023/10/08 13:46:58;;;;;;;44.67;17.88;;;22.00;34.30;;;;;;4993093;28;20853;-73
2023/10/08 13:49:26;;;;;;;35.97;18.52;;;21.90;34.30;;;;;;4993200;28;20750;-72
2023/10/08 13:51:55;;;;;;;43.60;17.92;;;21.80;34.50;;;;;;4992798;28;20391;-73
2023/10/08 13:54:22;;;;;;;45.30;17.97;;;21.90;33.90;;;;;;4992804;28;20418;-73
2023/10/08 13:56:48;;;;;;;41.17;18.25;;;21.80;34.70;;;;;;4975640;28;20382;-74
2023/10/08 13:59:14;;;;;;;43.88;19.13;;;22.10;34.00;;;;;;4993035;28;20405;-73
2023/10/08 14:01:45;;;;;;;44.92;17.90;;;22.10;34.20;;;;;;4992538;28;20397;-73